createdAt,value
2023-03-15T00:00:12.490Z,100293.91
2023-03-15T00:02:40.035Z,100303.88
2023-03-15T00:05:10.161Z,100295.84
2023-03-15T00:07:39.863Z,100299.84
2023-03-15T00:10:07.488Z,100305.59
2023-03-15T00:12:34.529Z,100316.22
2023-03-15T00:15:02.696Z,100319.41
2023-03-15T00:17:34.805Z,100318.91
2023-03-15T00:20:04.963Z,100319.69
2023-03-15T00:22:31.920Z,100326.59
2023-03-15T00:24:58.854Z,100328.97
2023-03-15T00:27:25.913Z,100329.78
2023-03-15T00:29:52.760Z,100326.34
2023-03-15T00:32:19.742Z,100331.38
2023-03-15T00:34:49.246Z,100331.63
2023-03-15T00:37:19.763Z,100340.53
2023-03-15T00:39:48.420Z,100342.41
2023-03-15T00:42:15.977Z,100342.75
2023-03-15T00:44:45.776Z,100353.91
2023-03-15T00:47:15.048Z,100354.41
2023-03-15T00:49:42.130Z,100359.44
2023-03-15T00:52:13.592Z,100360.94
2023-03-15T00:54:52.199Z,100358.06
2023-03-15T00:57:19.361Z,100362.38
2023-03-15T00:59:48.674Z,100372.66
2023-03-15T01:02:15.528Z,100369.31
2023-03-15T01:04:44.887Z,100380.72
2023-03-15T01:07:12.163Z,100375.63
2023-03-15T01:09:39.115Z,100378.63
2023-03-15T01:12:06.611Z,100380.56
2023-03-15T01:14:37.180Z,100383.78
2023-03-15T01:17:04.077Z,100385.84
2023-03-15T01:19:33.102Z,100382.13
2023-03-15T01:21:59.983Z,100386.25
2023-03-15T01:24:26.914Z,100382.56
2023-03-15T01:26:54.038Z,100387.31
2023-03-15T01:29:20.918Z,100394.31
2023-03-15T01:31:47.892Z,100399.69
2023-03-15T01:34:14.820Z,100404.34
2023-03-15T01:36:44.216Z,100402.63
2023-03-15T01:39:13.563Z,100393.03
2023-03-15T01:41:40.440Z,100397.47
2023-03-15T01:44:16.071Z,100398.09
2023-03-15T01:46:48.260Z,100403.41
2023-03-15T01:49:35.212Z,100399.19
2023-03-15T01:52:16.037Z,100406.91
2023-03-15T01:54:50.102Z,100408.50
2023-03-15T01:57:49.835Z,100421.06
2023-03-15T02:00:20.384Z,100418.69
2023-03-15T02:02:53.568Z,100421.72
2023-03-15T02:05:28.586Z,100424.78
2023-03-15T02:07:55.966Z,100426.69
2023-03-15T02:10:41.580Z,100416.88
2023-03-15T02:13:08.775Z,100427.78
2023-03-15T02:15:35.929Z,100438.25
2023-03-15T02:18:05.328Z,100428.63
2023-03-15T02:20:41.884Z,100435.63
2023-03-15T02:23:18.770Z,100439.09
2023-03-15T02:26:10.201Z,100435.00
2023-03-15T02:28:37.869Z,100436.28
2023-03-15T02:31:07.378Z,100441.59
2023-03-15T02:33:45.503Z,100435.44
2023-03-15T02:36:19.301Z,100442.88
2023-03-15T02:38:46.670Z,100444.59
2023-03-15T02:41:18.079Z,100445.91
2023-03-15T02:43:52.504Z,100453.59
2023-03-15T02:46:19.769Z,100458.44
2023-03-15T02:48:51.643Z,100446.09
2023-03-15T02:51:24.895Z,100452.63
2023-03-15T02:53:51.978Z,100464.59
2023-03-15T02:56:18.859Z,100470.34
2023-03-15T02:58:45.876Z,100469.47
2023-03-15T03:01:17.677Z,100475.63
2023-03-15T03:03:49.974Z,100475.44
2023-03-15T03:06:20.919Z,100486.47
2023-03-15T03:08:48.044Z,100492.97
2023-03-15T03:11:16.464Z,100492.72
2023-03-15T03:13:43.907Z,100496.44
2023-03-15T03:16:11.312Z,100492.50
2023-03-15T03:18:39.000Z,100502.75
2023-03-15T03:21:09.451Z,100509.38
2023-03-15T03:23:39.385Z,100517.94
2023-03-15T03:26:20.041Z,100520.63
2023-03-15T03:28:48.792Z,100527.69
2023-03-15T03:31:27.528Z,100527.44
2023-03-15T03:33:56.902Z,100531.81
2023-03-15T03:36:24.939Z,100535.72
2023-03-15T03:38:53.779Z,100534.34
2023-03-15T03:41:21.422Z,100543.00
2023-03-15T03:43:50.949Z,100552.22
2023-03-15T03:46:17.947Z,100551.50
2023-03-15T03:48:45.074Z,100568.31
2023-03-15T03:51:14.079Z,100562.16
2023-03-15T03:53:41.210Z,100565.38
2023-03-15T03:56:09.065Z,100572.88
2023-03-15T03:58:38.199Z,100579.63
2023-03-15T04:01:05.901Z,100582.88
2023-03-15T04:03:33.482Z,100592.31
2023-03-15T04:06:01.859Z,100591.44
2023-03-15T04:08:31.795Z,100596.63
2023-03-15T04:10:58.735Z,100593.41
2023-03-15T04:13:26.014Z,100603.75
2023-03-15T04:15:57.472Z,100598.81
2023-03-15T04:18:24.982Z,100604.22
2023-03-15T04:20:54.639Z,100611.34
2023-03-15T04:23:25.025Z,100609.19
2023-03-15T04:25:55.253Z,100624.16
2023-03-15T04:28:22.867Z,100626.88
2023-03-15T04:30:52.597Z,100638.03
2023-03-15T04:33:19.522Z,100632.16
2023-03-15T04:35:48.944Z,100643.66
2023-03-15T04:38:15.956Z,100635.88
2023-03-15T04:40:42.998Z,100645.25
2023-03-15T04:43:10.224Z,100655.22
2023-03-15T04:45:41.779Z,100662.03
2023-03-15T04:48:08.780Z,100671.09
2023-03-15T04:50:35.784Z,100669.69
2023-03-15T04:53:02.754Z,100662.34
2023-03-15T04:55:29.795Z,100670.25
2023-03-15T04:57:58.800Z,100673.66
2023-03-15T05:00:25.737Z,100676.97
2023-03-15T05:02:55.079Z,100676.59
2023-03-15T05:05:29.455Z,100673.19
2023-03-15T05:07:59.472Z,100661.09
2023-03-15T05:10:26.614Z,100668.97
2023-03-15T05:12:53.608Z,100658.13
2023-03-15T05:15:20.660Z,100678.50
2023-03-15T05:17:48.873Z,100678.56
2023-03-15T05:20:16.685Z,100688.78
2023-03-15T05:22:45.764Z,100696.59
2023-03-15T05:25:12.867Z,100702.16
2023-03-15T05:27:42.511Z,100701.53
2023-03-15T05:30:10.675Z,100703.84
2023-03-15T05:32:44.591Z,100718.72
2023-03-15T05:35:12.817Z,100724.34
2023-03-15T05:37:43.486Z,100723.09
2023-03-15T05:40:13.514Z,100726.25
2023-03-15T05:42:41.282Z,100738.75
2023-03-15T05:45:09.043Z,100736.03
2023-03-15T05:47:38.550Z,100744.13
2023-03-15T05:50:06.216Z,100752.38
2023-03-15T05:52:37.963Z,100748.13
2023-03-15T05:55:05.410Z,100757.78
2023-03-15T05:57:34.897Z,100751.44
2023-03-15T06:00:07.192Z,100752.44
2023-03-15T06:02:38.826Z,100756.56
2023-03-15T06:05:06.502Z,100762.31
2023-03-15T06:07:36.313Z,100766.88
2023-03-15T06:10:06.582Z,100769.75
2023-03-15T06:12:33.597Z,100770.63
2023-03-15T06:15:00.642Z,100765.28
2023-03-15T06:17:32.527Z,100776.66
2023-03-15T06:20:05.076Z,100786.47
2023-03-15T06:22:32.359Z,100781.16
2023-03-15T06:24:59.632Z,100786.53
2023-03-15T06:27:29.093Z,100798.59
2023-03-15T06:29:57.393Z,100795.81
2023-03-15T06:32:24.434Z,100803.63
2023-03-15T06:34:52.263Z,100806.06
2023-03-15T06:37:28.824Z,100807.88
2023-03-15T06:40:01.333Z,100819.94
2023-03-15T06:42:28.306Z,100831.47
2023-03-15T06:44:57.377Z,100834.94
2023-03-15T06:47:24.302Z,100841.34
2023-03-15T06:49:51.295Z,100848.56
2023-03-15T06:52:21.938Z,100854.41
2023-03-15T06:54:51.032Z,100859.41
2023-03-15T06:57:17.986Z,100861.53
2023-03-15T06:59:44.833Z,100866.06
2023-03-15T07:02:20.986Z,100867.69
2023-03-15T07:04:48.132Z,100876.47
2023-03-15T07:07:17.984Z,100867.41
2023-03-15T07:09:44.950Z,100872.44
2023-03-15T07:12:14.554Z,100871.72
2023-03-15T07:14:41.451Z,100885.59
2023-03-15T07:17:08.397Z,100878.66
2023-03-15T07:19:37.311Z,100878.31
2023-03-15T07:22:08.459Z,100873.19
2023-03-15T07:24:35.404Z,100887.31
2023-03-15T07:27:02.283Z,100906.13
2023-03-15T07:29:32.258Z,100891.72
2023-03-15T07:32:01.307Z,100908.06
2023-03-15T07:34:30.585Z,100906.06
2023-03-15T07:37:00.181Z,100902.91
2023-03-15T07:39:27.117Z,100899.78
2023-03-15T07:41:56.550Z,100902.66
2023-03-15T07:44:23.561Z,100905.50
2023-03-15T07:46:51.012Z,100909.97
2023-03-15T07:49:20.540Z,100912.19
2023-03-15T07:51:47.780Z,100918.16
2023-03-15T07:54:17.730Z,100909.16
2023-03-15T07:56:44.734Z,100914.00
2023-03-15T07:59:11.841Z,100932.22
2023-03-15T08:01:39.154Z,100943.34
2023-03-15T08:04:06.111Z,100946.81
2023-03-15T08:06:37.755Z,100953.34
2023-03-15T08:09:05.817Z,100939.91
2023-03-15T08:14:02.902Z,100944.63
2023-03-15T08:16:29.841Z,100957.34
2023-03-15T08:18:56.844Z,100970.34
2023-03-15T08:21:25.928Z,100988.91
2023-03-15T08:23:52.904Z,100993.84
2023-03-15T08:26:20.098Z,101001.97
2023-03-15T08:28:47.081Z,101011.41
2023-03-15T08:31:14.202Z,101015.09
2023-03-15T08:33:43.795Z,101024.84
2023-03-15T08:36:11.165Z,101017.44
2023-03-15T08:38:41.767Z,101017.84
2023-03-15T08:41:08.669Z,101024.38
2023-03-15T08:43:35.680Z,101024.31
2023-03-15T08:46:02.644Z,101030.44
2023-03-15T08:48:32.199Z,101036.03
2023-03-15T08:51:06.979Z,101034.69
2023-03-15T08:53:37.778Z,101032.66
2023-03-15T08:56:08.063Z,101036.94
2023-03-15T08:58:37.996Z,101047.19
2023-03-15T09:01:05.158Z,101043.03
2023-03-15T09:03:32.834Z,101047.56
2023-03-15T09:06:00.255Z,101057.38
2023-03-15T09:08:28.269Z,101058.38
2023-03-15T09:10:58.966Z,101065.53
2023-03-15T09:13:26.282Z,101055.03
2023-03-15T09:15:55.508Z,101063.44
2023-03-15T09:18:23.789Z,101066.22
2023-03-15T09:20:52.949Z,101055.22
2023-03-15T09:23:19.839Z,101061.97
2023-03-15T09:25:49.839Z,101053.25
2023-03-15T09:28:16.921Z,101055.03
2023-03-15T09:30:43.863Z,101057.72
2023-03-15T09:33:14.620Z,101056.53
2023-03-15T09:35:46.334Z,101054.50
2023-03-15T09:38:13.179Z,101052.25
2023-03-15T09:40:47.611Z,101058.81
2023-03-15T09:43:31.824Z,101060.16
2023-03-15T09:46:32.968Z,101053.31
2023-03-15T09:49:34.058Z,101061.22
2023-03-15T09:52:13.498Z,101065.03
2023-03-15T09:55:11.366Z,101059.72
2023-03-15T09:58:05.466Z,101076.09
2023-03-15T10:00:50.886Z,101073.72
2023-03-15T10:03:45.254Z,101071.72
2023-03-15T10:06:30.286Z,101072.84
2023-03-15T10:09:00.523Z,101075.88
2023-03-15T10:11:59.324Z,101082.47
2023-03-15T10:14:51.170Z,101079.72
2023-03-15T10:17:42.691Z,101079.75
2023-03-15T10:20:30.076Z,101080.56
2023-03-15T10:23:28.646Z,101076.75
2023-03-15T10:25:58.196Z,101087.78
2023-03-15T10:28:25.573Z,101076.47
2023-03-15T10:30:53.095Z,101076.00
2023-03-15T10:33:32.040Z,101097.13
2023-03-15T10:36:11.323Z,101081.56
2023-03-15T10:38:39.386Z,101084.75
2023-03-15T10:41:15.283Z,101081.66
2023-03-15T10:44:00.474Z,101090.56
2023-03-15T10:46:28.060Z,101078.84
2023-03-15T10:49:12.073Z,101072.34
2023-03-15T10:51:50.718Z,101071.28
2023-03-15T10:54:24.187Z,101074.66
2023-03-15T10:57:15.826Z,101067.56
2023-03-15T11:00:07.072Z,101066.00
2023-03-15T11:02:37.363Z,101075.38
2023-03-15T11:05:10.291Z,101068.00
2023-03-15T11:07:37.434Z,101081.00
2023-03-15T11:10:07.082Z,101078.78
2023-03-15T11:12:40.968Z,101077.03
2023-03-15T11:15:15.857Z,101093.03
2023-03-15T11:17:50.668Z,101125.22
2023-03-15T11:20:31.899Z,101155.16
2023-03-15T11:23:03.280Z,101157.63
2023-03-15T11:25:34.270Z,101155.81
2023-03-15T11:28:01.394Z,101159.69
2023-03-15T11:30:31.464Z,101159.19
2023-03-15T11:33:08.515Z,101155.78
2023-03-15T11:35:48.401Z,101151.66
2023-03-15T11:38:37.796Z,101151.91
2023-03-15T11:41:56.728Z,101158.66
2023-03-15T11:44:50.113Z,101139.63
2023-03-15T11:47:54.257Z,101144.66
2023-03-15T11:50:21.492Z,101144.59
2023-03-15T11:52:54.586Z,101144.38
2023-03-15T11:55:27.876Z,101142.25
2023-03-15T11:58:30.981Z,101151.44
2023-03-15T12:01:06.975Z,101149.03
2023-03-15T12:03:43.461Z,101146.28
2023-03-15T12:06:16.268Z,101150.75
2023-03-15T12:08:52.997Z,101134.63
2023-03-15T12:11:22.954Z,101136.47
2023-03-15T12:14:01.161Z,101136.34
2023-03-15T12:16:42.044Z,101130.69
2023-03-15T12:19:21.080Z,101129.38
2023-03-15T12:21:52.258Z,101142.94
2023-03-15T12:24:38.518Z,101137.72
2023-03-15T12:27:18.618Z,101141.25
2023-03-15T12:29:47.525Z,101130.56
2023-03-15T12:32:21.086Z,101134.97
2023-03-15T12:34:58.371Z,101137.88
2023-03-15T12:37:47.828Z,101140.03
2023-03-15T12:40:22.458Z,101149.91
2023-03-15T12:42:49.581Z,101147.22
2023-03-15T12:45:16.648Z,101151.97
2023-03-15T12:47:52.627Z,101163.06
2023-03-15T12:50:48.015Z,101189.09
2023-03-15T12:53:19.809Z,101219.59
2023-03-15T12:55:47.655Z,101207.78
2023-03-15T12:58:22.198Z,101204.16
2023-03-15T13:00:54.450Z,101208.22
2023-03-15T13:03:24.195Z,101198.56
2023-03-15T13:06:29.176Z,101194.53
2023-03-15T13:09:37.276Z,101190.44
2023-03-15T13:12:35.019Z,101222.88
2023-03-15T13:15:14.816Z,101255.97
2023-03-15T13:17:58.768Z,101250.63
2023-03-15T13:21:06.028Z,101243.94
2023-03-15T13:23:34.422Z,101258.47
2023-03-15T13:26:23.473Z,101237.00
2023-03-15T13:28:59.616Z,101229.78
2023-03-15T13:31:31.566Z,101214.56
2023-03-15T13:34:15.052Z,101211.06
2023-03-15T13:36:49.229Z,101200.19
2023-03-15T13:39:26.000Z,101193.41
2023-03-15T13:42:20.593Z,101201.69
2023-03-15T13:44:47.532Z,101203.38
2023-03-15T13:47:24.343Z,101201.56
2023-03-15T13:49:56.782Z,101201.66
2023-03-15T13:52:23.794Z,101205.88
2023-03-15T13:54:53.970Z,101209.03
2023-03-15T13:57:23.594Z,101202.84
2023-03-15T13:59:54.453Z,101202.69
2023-03-15T14:02:27.815Z,101214.13
2023-03-15T14:05:05.443Z,101206.91
2023-03-15T14:07:46.665Z,101208.19
2023-03-15T14:10:27.315Z,101203.50
2023-03-15T14:12:58.267Z,101213.53
2023-03-15T14:15:44.325Z,101201.94
2023-03-15T14:18:11.232Z,101205.97
2023-03-15T14:20:45.254Z,101205.13
2023-03-15T14:23:19.156Z,101206.31
2023-03-15T14:26:11.594Z,101202.16
2023-03-15T14:28:39.980Z,101203.69
2023-03-15T14:31:27.738Z,101202.69
2023-03-15T14:34:08.041Z,101203.41
2023-03-15T14:36:43.938Z,101204.66
2023-03-15T14:39:25.815Z,101192.78
2023-03-15T14:41:57.831Z,101191.69
2023-03-15T14:44:25.002Z,101198.84
2023-03-15T14:46:52.434Z,101204.78
2023-03-15T14:49:29.620Z,101213.03
2023-03-15T14:52:03.604Z,101216.00
2023-03-15T14:54:31.831Z,101215.22
2023-03-15T14:56:58.775Z,101208.91
2023-03-15T14:59:25.945Z,101217.91
2023-03-15T15:02:01.170Z,101224.72
2023-03-15T15:04:33.813Z,101286.19
2023-03-15T15:07:03.222Z,101285.34
2023-03-15T15:09:32.919Z,101322.03
2023-03-15T15:11:59.869Z,101317.34
2023-03-15T15:14:29.849Z,101311.09
2023-03-15T15:16:56.993Z,101329.84
2023-03-15T15:19:24.070Z,101339.19
2023-03-15T15:21:51.684Z,101352.59
2023-03-15T15:24:24.201Z,101347.94
2023-03-15T15:26:51.255Z,101372.88
2023-03-15T15:29:21.447Z,101369.22
2023-03-15T15:31:48.362Z,101364.53
2023-03-15T15:34:15.647Z,101333.53
2023-03-15T15:36:46.152Z,101296.50
2023-03-15T15:39:31.489Z,101290.69
2023-03-15T15:42:00.993Z,101298.88
2023-03-15T15:44:28.350Z,101305.97
2023-03-15T15:46:55.450Z,101302.84
2023-03-15T15:49:25.193Z,101312.44
2023-03-15T15:51:52.565Z,101312.09
2023-03-15T15:54:26.427Z,101315.03
2023-03-15T15:57:06.338Z,101310.44
2023-03-15T15:59:38.758Z,101321.91
2023-03-15T16:02:17.370Z,101310.63
2023-03-15T16:04:44.511Z,101308.81
2023-03-15T16:07:15.186Z,101311.91
2023-03-15T16:09:44.225Z,101315.41
2023-03-15T16:12:27.219Z,101317.28
2023-03-15T16:14:54.874Z,101321.88
2023-03-15T16:17:25.595Z,101323.41
2023-03-15T16:19:55.191Z,101316.19
2023-03-15T16:22:27.120Z,101318.16
2023-03-15T16:24:57.146Z,101324.78
2023-03-15T16:27:26.892Z,101331.09
2023-03-15T16:29:56.052Z,101320.19
2023-03-15T16:32:42.888Z,101333.22
2023-03-15T16:35:17.656Z,101334.22
2023-03-15T16:37:46.582Z,101340.31
2023-03-15T16:40:23.170Z,101345.34
2023-03-15T16:42:50.691Z,101349.66
2023-03-15T16:45:20.350Z,101359.47
2023-03-15T16:47:49.714Z,101358.25
2023-03-15T16:50:19.891Z,101359.63
2023-03-15T16:52:58.875Z,101368.25
2023-03-15T16:55:33.021Z,101362.44
2023-03-15T16:58:13.934Z,101369.81
2023-03-15T17:00:44.330Z,101375.94
2023-03-15T17:03:14.537Z,101368.34
2023-03-15T17:05:45.612Z,101375.19
2023-03-15T17:08:20.058Z,101387.84
2023-03-15T17:10:49.974Z,101380.88
2023-03-15T17:13:28.492Z,101386.81
2023-03-15T17:15:57.725Z,101381.94
2023-03-15T17:18:24.623Z,101399.56
2023-03-15T17:20:51.784Z,101389.75
2023-03-15T17:23:21.850Z,101403.22
2023-03-15T17:25:49.484Z,101397.97
2023-03-15T17:28:16.774Z,101402.34
2023-03-15T17:30:43.701Z,101402.47
2023-03-15T17:33:11.744Z,101416.19
2023-03-15T17:35:48.817Z,101411.66
2023-03-15T17:38:21.778Z,101419.63
2023-03-15T17:40:49.211Z,101414.25
2023-03-15T17:43:17.266Z,101418.41
2023-03-15T17:45:44.540Z,101415.44
2023-03-15T17:48:11.950Z,101419.13
2023-03-15T17:50:41.453Z,101421.41
2023-03-15T17:53:18.090Z,101429.03
2023-03-15T17:55:53.460Z,101417.81
2023-03-15T17:58:23.072Z,101418.16
2023-03-15T18:00:52.597Z,101417.69
2023-03-15T18:03:19.593Z,101424.25
2023-03-15T18:05:47.327Z,101431.69
2023-03-15T18:08:21.365Z,101431.16
2023-03-15T18:10:50.643Z,101437.97
2023-03-15T18:13:21.495Z,101430.78
2023-03-15T18:15:49.777Z,101436.28
2023-03-15T18:18:19.374Z,101432.56
2023-03-15T18:20:49.601Z,101437.69
2023-03-15T18:23:17.684Z,101438.94
2023-03-15T18:25:48.249Z,101440.09
2023-03-15T18:28:15.382Z,101449.53
2023-03-15T18:30:44.168Z,101448.44
2023-03-15T18:33:16.069Z,101448.38
2023-03-15T18:35:46.006Z,101451.31
2023-03-15T18:38:13.076Z,101456.56
2023-03-15T18:40:39.929Z,101450.22
2023-03-15T18:43:06.966Z,101459.72
2023-03-15T18:45:37.150Z,101451.28
2023-03-15T18:48:07.253Z,101457.31
2023-03-15T18:50:35.333Z,101459.66
2023-03-15T18:53:06.065Z,101464.50
2023-03-15T18:55:33.708Z,101463.59
2023-03-15T18:58:03.129Z,101461.47
2023-03-15T19:00:35.924Z,101457.06
2023-03-15T19:03:05.101Z,101465.59
2023-03-15T19:05:37.249Z,101466.25
2023-03-15T19:08:04.335Z,101461.53
2023-03-15T19:10:31.360Z,101470.97
2023-03-15T19:12:58.220Z,101466.22
2023-03-15T19:15:28.106Z,101469.47
2023-03-15T19:17:57.299Z,101475.38
2023-03-15T19:20:26.812Z,101474.31
2023-03-15T19:22:55.997Z,101474.31
2023-03-15T19:25:22.983Z,101477.09
2023-03-15T19:27:49.990Z,101480.53
2023-03-15T19:30:21.167Z,101489.22
2023-03-15T19:32:49.939Z,101493.75
2023-03-15T19:35:23.182Z,101489.00
2023-03-15T19:37:50.429Z,101492.25
2023-03-15T19:40:20.767Z,101498.66
2023-03-15T19:42:51.261Z,101498.84
2023-03-15T19:45:20.831Z,101496.69
2023-03-15T19:47:47.825Z,101500.53
2023-03-15T19:50:15.512Z,101505.97
2023-03-15T19:52:48.381Z,101502.03
2023-03-15T19:55:22.458Z,101510.78
2023-03-15T19:57:49.353Z,101521.50
2023-03-15T20:00:20.431Z,101524.94
2023-03-15T20:02:52.160Z,101525.06
2023-03-15T20:05:23.229Z,101524.22
2023-03-15T20:07:54.281Z,101529.19
2023-03-15T20:10:24.412Z,101528.50
2023-03-15T20:12:59.175Z,101534.13
2023-03-15T20:15:29.969Z,101530.34
2023-03-15T20:17:59.081Z,101535.19
2023-03-15T20:20:25.968Z,101531.91
2023-03-15T20:22:52.859Z,101540.44
2023-03-15T20:25:20.564Z,101541.19
2023-03-15T20:27:47.898Z,101542.78
2023-03-15T20:30:17.317Z,101545.66
2023-03-15T20:32:44.613Z,101539.63
2023-03-15T20:35:12.311Z,101541.81
2023-03-15T20:37:42.975Z,101548.53
2023-03-15T20:40:13.364Z,101554.25
2023-03-15T20:42:41.283Z,101558.88
2023-03-15T20:45:12.859Z,101557.34
2023-03-15T20:47:41.328Z,101558.31
2023-03-15T20:50:10.885Z,101557.00
2023-03-15T20:52:43.420Z,101555.38
2023-03-15T20:55:16.012Z,101561.50
2023-03-15T20:57:45.773Z,101561.59
2023-03-15T21:00:23.071Z,101559.09
2023-03-15T21:02:50.469Z,101567.69
2023-03-15T21:05:18.033Z,101563.50
2023-03-15T21:07:45.846Z,101567.78
2023-03-15T21:10:13.744Z,101566.53
2023-03-15T21:12:40.802Z,101565.28
2023-03-15T21:15:08.367Z,101566.75
2023-03-15T21:17:35.306Z,101569.31
2023-03-15T21:20:02.216Z,101567.66
2023-03-15T21:22:34.552Z,101566.16
2023-03-15T21:25:02.082Z,101567.41
2023-03-15T21:27:34.185Z,101559.19
2023-03-15T21:30:01.345Z,101568.94
2023-03-15T21:32:28.464Z,101568.84
2023-03-15T21:34:58.503Z,101569.72
2023-03-15T21:37:25.407Z,101565.59
2023-03-15T21:39:54.090Z,101573.25
2023-03-15T21:42:21.004Z,101568.97
2023-03-15T21:44:50.320Z,101573.06
2023-03-15T21:47:18.007Z,101563.22
2023-03-15T21:49:45.049Z,101567.63
2023-03-15T21:52:16.264Z,101562.00
2023-03-15T21:54:44.890Z,101574.81
2023-03-15T21:57:14.205Z,101574.72
2023-03-15T21:59:45.707Z,101571.19
2023-03-15T22:02:14.260Z,101572.59
2023-03-15T22:04:46.524Z,101570.41
2023-03-15T22:07:13.544Z,101566.47
2023-03-15T22:09:41.871Z,101577.94
2023-03-15T22:12:09.554Z,101578.97
2023-03-15T22:14:41.233Z,101579.16
2023-03-15T22:17:08.525Z,101580.09
2023-03-15T22:19:35.678Z,101582.19
2023-03-15T22:22:05.161Z,101588.50
2023-03-15T22:24:34.024Z,101576.47
2023-03-15T22:27:01.941Z,101581.34
2023-03-15T22:29:29.768Z,101592.53
2023-03-15T22:31:56.691Z,101590.38
2023-03-15T22:34:27.173Z,101592.09
2023-03-15T22:36:54.299Z,101593.34
2023-03-15T22:39:24.138Z,101582.25
2023-03-15T22:41:51.032Z,101582.63
2023-03-15T22:44:20.562Z,101583.03
2023-03-15T22:46:50.167Z,101586.56
2023-03-15T22:49:17.045Z,101581.22
2023-03-15T22:51:46.197Z,101594.19
2023-03-15T22:54:13.223Z,101589.13
2023-03-15T22:56:43.254Z,101587.78
2023-03-15T22:59:12.366Z,101588.91
2023-03-15T23:01:44.013Z,101590.16
2023-03-15T23:04:16.469Z,101584.69
2023-03-15T23:06:43.481Z,101590.19
2023-03-15T23:09:11.028Z,101589.97
2023-03-15T23:11:37.971Z,101599.47
2023-03-15T23:14:09.539Z,101603.81
2023-03-15T23:16:36.457Z,101599.09
2023-03-15T23:19:08.827Z,101604.16
2023-03-15T23:21:36.087Z,101594.75
2023-03-15T23:24:03.050Z,101596.75
2023-03-15T23:26:29.961Z,101607.56
2023-03-15T23:28:57.249Z,101611.22
2023-03-15T23:31:26.766Z,101614.66
2023-03-15T23:33:53.686Z,101613.13
2023-03-15T23:36:20.505Z,101617.09
2023-03-15T23:38:47.396Z,101617.78
2023-03-15T23:41:14.377Z,101629.50
2023-03-15T23:43:41.639Z,101624.00
2023-03-15T23:46:14.439Z,101624.59
2023-03-15T23:48:42.237Z,101630.53
2023-03-15T23:51:12.648Z,101629.25
2023-03-15T23:53:39.752Z,101636.56
2023-03-15T23:56:07.338Z,101636.56
2023-03-15T23:58:34.280Z,101639.41
